createdAt,value
2022-10-28T00:01:25.259Z,19.88
2022-10-28T00:03:57.031Z,21.00
2022-10-28T00:06:32.549Z,19.25
2022-10-28T00:08:59.939Z,18.40
2022-10-28T00:11:29.253Z,15.70
2022-10-28T00:13:57.830Z,18.65
2022-10-28T00:16:32.246Z,20.40
2022-10-28T00:19:00.172Z,18.98
2022-10-28T00:21:29.729Z,17.05
2022-10-28T00:23:56.944Z,16.13
2022-10-28T00:26:28.761Z,20.98
2022-10-28T00:29:25.133Z,16.48
2022-10-28T00:31:52.616Z,15.80
2022-10-28T00:36:48.426Z,19.52
2022-10-28T00:39:20.096Z,19.50
2022-10-28T00:41:55.656Z,20.20
2022-10-28T00:44:40.489Z,17.05
2022-10-28T00:47:29.907Z,15.15
2022-10-28T00:50:03.645Z,15.00
2022-10-28T00:52:31.463Z,18.50
2022-10-28T00:55:00.458Z,13.75
2022-10-28T00:57:30.850Z,19.23
2022-10-28T00:59:58.319Z,19.55
2022-10-28T01:04:51.070Z,18.88
2022-10-28T01:07:17.868Z,15.50
2022-10-28T01:09:44.643Z,18.08
2022-10-28T01:12:35.082Z,16.70
2022-10-28T01:15:16.405Z,22.05
2022-10-28T01:17:54.862Z,20.20
2022-10-28T01:20:36.160Z,18.67
2022-10-28T01:23:29.017Z,17.13
2022-10-28T01:26:17.263Z,22.92
2022-10-28T01:29:17.395Z,16.30
2022-10-28T01:32:07.683Z,20.98
2022-10-28T01:34:57.087Z,20.00
2022-10-28T01:37:34.229Z,20.35
2022-10-28T01:40:31.176Z,19.55
2022-10-28T01:45:53.991Z,19.77
2022-10-28T01:48:28.412Z,19.73
2022-10-28T01:51:08.966Z,23.33
2022-10-28T01:53:39.545Z,19.48
2022-10-28T01:56:10.766Z,19.67
2022-10-28T01:58:38.348Z,18.77
2022-10-28T02:01:07.020Z,19.20
2022-10-28T02:03:33.839Z,20.40
2022-10-28T02:06:03.954Z,21.80
2022-10-28T02:08:46.045Z,25.55
2022-10-28T02:11:25.477Z,21.15
2022-10-28T02:14:02.754Z,19.75
2022-10-28T02:19:40.010Z,24.33
2022-10-28T02:22:22.627Z,16.77
2022-10-28T02:25:09.437Z,18.27
2022-10-28T02:27:44.842Z,25.42
2022-10-28T02:30:22.718Z,22.73
2022-10-28T02:32:56.380Z,21.45
2022-10-28T02:35:30.687Z,23.63
2022-10-28T02:37:59.620Z,25.25
2022-10-28T02:40:28.781Z,21.30
2022-10-28T02:42:59.892Z,21.92
2022-10-28T02:45:32.319Z,26.05
2022-10-28T02:48:02.529Z,23.52
2022-10-28T02:50:34.293Z,24.48
2022-10-28T02:53:04.479Z,20.52
2022-10-28T02:55:39.905Z,22.40
2022-10-28T02:58:06.902Z,22.30
2022-10-28T03:00:33.293Z,26.42
2022-10-28T03:02:59.808Z,19.83
2022-10-28T03:05:26.150Z,22.43
2022-10-28T03:07:52.647Z,23.80
2022-10-28T03:10:19.444Z,21.58
2022-10-28T03:12:45.987Z,21.85
2022-10-28T03:15:12.364Z,20.55
2022-10-28T03:17:39.978Z,20.48
2022-10-28T03:20:06.730Z,21.65
2022-10-28T03:22:33.114Z,24.83
2022-10-28T03:24:59.497Z,25.25
2022-10-28T03:27:25.900Z,23.95
2022-10-28T03:29:52.275Z,25.60
2022-10-28T03:32:18.870Z,24.42
2022-10-28T03:34:47.295Z,22.88
2022-10-28T03:37:14.307Z,20.38
2022-10-28T03:39:40.707Z,22.45
2022-10-28T03:42:07.072Z,24.77
2022-10-28T03:44:33.433Z,28.73
2022-10-28T03:46:59.796Z,22.50
2022-10-28T03:49:26.238Z,26.50
2022-10-28T03:51:52.633Z,25.13
2022-10-28T03:54:19.010Z,28.35
2022-10-28T03:56:45.382Z,27.70
2022-10-28T03:59:13.257Z,26.20
2022-10-28T04:01:41.639Z,24.63
2022-10-28T04:04:08.085Z,29.60
2022-10-28T04:06:34.481Z,27.90
2022-10-28T04:09:00.867Z,28.23
2022-10-28T04:11:27.230Z,26.92
2022-10-28T04:13:53.588Z,30.52
2022-10-28T04:16:20.030Z,25.33
2022-10-28T04:18:46.434Z,26.17
2022-10-28T04:21:12.777Z,30.42
2022-10-28T04:23:39.143Z,25.25
2022-10-28T04:26:05.841Z,27.70
2022-10-28T04:28:32.937Z,24.95
2022-10-28T04:30:59.422Z,30.25
2022-10-28T04:33:25.827Z,28.30
2022-10-28T04:35:52.207Z,27.92
2022-10-28T04:38:18.601Z,24.35
2022-10-28T04:40:48.177Z,23.83
2022-10-28T04:43:15.135Z,26.08
2022-10-28T04:45:41.546Z,25.95
2022-10-28T04:48:09.413Z,26.95
2022-10-28T04:50:36.088Z,28.60
2022-10-28T04:53:02.475Z,26.88
2022-10-28T04:55:28.868Z,25.55
2022-10-28T04:57:56.897Z,24.90
2022-10-28T05:00:24.701Z,25.35
2022-10-28T05:02:51.134Z,23.80
2022-10-28T05:05:18.299Z,30.42
2022-10-28T05:07:45.050Z,25.02
2022-10-28T05:10:12.278Z,24.65
2022-10-28T05:12:43.113Z,22.50
2022-10-28T05:15:10.462Z,25.08
2022-10-28T05:17:39.304Z,22.73
2022-10-28T05:20:06.796Z,27.70
2022-10-28T05:24:59.472Z,25.70
2022-10-28T05:27:25.869Z,27.60
2022-10-28T05:29:52.200Z,27.55
2022-10-28T05:32:18.576Z,29.90
2022-10-28T05:34:44.926Z,25.13
2022-10-28T05:37:11.413Z,24.90
2022-10-28T05:39:37.769Z,23.40
2022-10-28T05:42:04.340Z,27.67
2022-10-28T05:44:30.697Z,26.03
2022-10-28T05:46:57.131Z,21.65
2022-10-28T05:49:23.570Z,24.85
2022-10-28T05:51:50.390Z,20.63
2022-10-28T05:54:16.765Z,25.35
2022-10-28T05:56:43.153Z,20.40
2022-10-28T05:59:09.491Z,20.77
2022-10-28T06:01:35.935Z,21.50
2022-10-28T06:04:02.386Z,22.23
2022-10-28T06:06:28.910Z,25.15
2022-10-28T06:08:55.230Z,21.97
2022-10-28T06:11:20.221Z,24.08
2022-10-28T06:13:46.651Z,23.27
2022-10-28T06:16:13.121Z,20.92
2022-10-28T06:18:39.595Z,21.42
2022-10-28T06:21:05.983Z,24.40
2022-10-28T06:23:32.369Z,23.17
2022-10-28T06:26:00.561Z,23.77
2022-10-28T06:28:27.223Z,20.67
2022-10-28T06:30:53.763Z,20.10
2022-10-28T06:33:20.255Z,21.77
2022-10-28T06:35:46.757Z,18.58
2022-10-28T06:38:13.175Z,19.43
2022-10-28T06:40:39.624Z,18.15
2022-10-28T06:43:12.528Z,21.88
2022-10-28T06:45:38.971Z,20.08
2022-10-28T06:48:07.004Z,19.80
2022-10-28T06:50:35.041Z,20.13
2022-10-28T06:53:01.448Z,21.63
2022-10-28T06:55:28.344Z,21.90
2022-10-28T06:57:59.596Z,23.67
2022-10-28T07:00:26.810Z,20.98
2022-10-28T07:02:54.237Z,22.98
2022-10-28T07:07:47.783Z,17.30
2022-10-28T07:10:14.333Z,18.65
2022-10-28T07:12:40.699Z,18.53
2022-10-28T07:15:07.793Z,18.65
2022-10-28T07:17:34.170Z,15.98
2022-10-28T07:20:00.540Z,19.33
2022-10-28T07:22:26.897Z,17.67
2022-10-28T07:24:53.331Z,14.77
2022-10-28T07:27:19.743Z,15.70
2022-10-28T07:29:46.166Z,16.07
2022-10-28T07:32:12.622Z,13.00
2022-10-28T07:34:39.002Z,10.83
2022-10-28T07:37:06.103Z,13.52
2022-10-28T07:39:32.601Z,11.68
2022-10-28T07:42:01.095Z,11.88
2022-10-28T07:44:27.479Z,14.10
2022-10-28T07:46:57.186Z,14.95
2022-10-28T07:49:24.830Z,13.40
2022-10-28T07:51:51.638Z,12.63
2022-10-28T07:54:18.072Z,13.50
2022-10-28T07:56:44.445Z,12.17
2022-10-28T07:59:10.804Z,11.70
2022-10-28T08:01:37.399Z,14.70
2022-10-28T08:04:03.899Z,11.25
2022-10-28T08:06:30.389Z,12.80
2022-10-28T08:08:57.372Z,12.13
2022-10-28T08:11:24.169Z,9.98
2022-10-28T08:13:56.419Z,16.88
2022-10-28T08:16:23.236Z,11.85
2022-10-28T08:18:49.628Z,10.63
2022-10-28T08:21:16.083Z,8.27
2022-10-28T08:23:46.553Z,10.65
2022-10-28T08:26:15.144Z,10.40
2022-10-28T08:28:41.748Z,12.48
2022-10-28T08:31:12.342Z,8.15
2022-10-28T08:33:42.283Z,10.18
2022-10-28T08:36:11.339Z,9.55
2022-10-28T08:38:41.654Z,9.85
2022-10-28T08:41:49.271Z,11.27
2022-10-28T08:44:18.347Z,9.52
2022-10-28T08:47:06.128Z,7.22
2022-10-28T08:49:36.448Z,7.72
2022-10-28T08:52:24.280Z,9.15
2022-10-28T08:54:55.423Z,9.73
2022-10-28T08:57:32.733Z,8.18
2022-10-28T08:59:59.954Z,7.00
2022-10-28T09:05:02.548Z,9.88
2022-10-28T09:07:37.329Z,8.65
2022-10-28T09:10:05.586Z,8.85
2022-10-28T09:12:34.789Z,7.38
2022-10-28T09:15:24.033Z,6.50
2022-10-28T09:17:56.832Z,10.55
2022-10-28T09:20:31.700Z,9.18
2022-10-28T09:23:03.242Z,7.25
2022-10-28T09:26:12.861Z,8.40
2022-10-28T09:28:51.014Z,8.05
2022-10-28T09:31:26.697Z,6.53
2022-10-28T09:34:05.256Z,9.45
2022-10-28T09:36:42.162Z,8.38
2022-10-28T09:39:25.370Z,11.27
2022-10-28T09:41:56.259Z,8.75
2022-10-28T09:44:28.830Z,9.70
2022-10-28T09:46:58.618Z,7.55
2022-10-28T09:49:30.007Z,6.55
2022-10-28T09:51:56.334Z,8.32
2022-10-28T09:54:32.123Z,11.52
2022-10-28T09:56:58.537Z,8.02
2022-10-28T09:59:25.051Z,9.87
2022-10-28T10:01:51.524Z,9.50
2022-10-28T10:04:23.516Z,11.02
2022-10-28T10:07:02.789Z,9.40
2022-10-28T10:09:32.263Z,11.27
2022-10-28T10:12:12.645Z,7.55
2022-10-28T10:14:43.591Z,11.05
2022-10-28T10:17:15.741Z,9.73
2022-10-28T10:20:03.846Z,10.75
2022-10-28T10:22:38.152Z,9.52
2022-10-28T10:25:23.184Z,12.27
2022-10-28T10:27:55.874Z,8.23
2022-10-28T10:30:26.538Z,9.73
2022-10-28T10:32:53.047Z,10.88
2022-10-28T10:35:30.299Z,7.75
2022-10-28T10:37:59.504Z,8.20
2022-10-28T10:40:33.552Z,7.40
2022-10-28T10:43:14.665Z,8.70
2022-10-28T10:45:42.025Z,9.35
2022-10-28T10:50:50.943Z,9.20
2022-10-28T10:53:25.429Z,8.73
2022-10-28T10:55:58.681Z,11.80
2022-10-28T10:58:28.603Z,9.45
2022-10-28T11:00:58.008Z,7.28
2022-10-28T11:03:31.827Z,8.65
2022-10-28T11:06:30.322Z,9.48
2022-10-28T11:08:47.539Z,8.98
2022-10-28T11:11:22.062Z,7.57
2022-10-28T11:14:01.679Z,8.70
2022-10-28T11:16:28.097Z,11.27
2022-10-28T11:18:54.437Z,8.25
2022-10-28T11:21:43.170Z,7.13
2022-10-28T11:24:48.427Z,10.23
2022-10-28T11:27:29.767Z,11.65
2022-10-28T11:29:59.340Z,9.38
2022-10-28T11:33:01.711Z,10.52
2022-10-28T11:35:45.684Z,6.28
2022-10-28T11:38:34.179Z,8.45
2022-10-28T11:41:17.379Z,6.80
2022-10-28T11:43:54.506Z,7.13
2022-10-28T11:46:40.460Z,11.18
2022-10-28T11:49:22.259Z,9.05
2022-10-28T11:52:03.296Z,10.23
2022-10-28T11:54:29.666Z,7.40
2022-10-28T11:57:01.635Z,8.07
2022-10-28T11:59:46.450Z,10.85
2022-10-28T12:02:22.007Z,9.20
2022-10-28T12:05:25.802Z,10.05
2022-10-28T12:08:10.390Z,10.38
2022-10-28T12:10:52.567Z,10.73
2022-10-28T12:13:30.101Z,8.45
2022-10-28T12:16:14.770Z,9.60
2022-10-28T12:19:02.104Z,7.32
2022-10-28T12:21:38.193Z,9.15
2022-10-28T12:24:09.469Z,9.57
2022-10-28T12:26:42.023Z,9.48
2022-10-28T12:29:21.308Z,10.52
2022-10-28T12:31:53.868Z,9.60
2022-10-28T12:34:31.854Z,10.18
2022-10-28T12:37:09.208Z,10.80
2022-10-28T12:39:43.557Z,12.45
2022-10-28T12:42:22.476Z,10.73
2022-10-28T12:44:53.709Z,12.02
2022-10-28T12:47:26.243Z,13.82
2022-10-28T12:50:23.540Z,13.63
2022-10-28T12:53:03.884Z,11.30
2022-10-28T12:55:48.515Z,10.60
2022-10-28T12:58:30.471Z,14.23
2022-10-28T13:01:04.348Z,10.95
2022-10-28T13:03:30.860Z,12.80
2022-10-28T13:06:06.008Z,14.23
2022-10-28T13:09:03.132Z,12.90
2022-10-28T13:11:41.496Z,10.68
2022-10-28T13:14:41.493Z,12.73
2022-10-28T13:17:32.651Z,15.05
2022-10-28T13:20:41.494Z,12.43
2022-10-28T13:23:45.139Z,11.73
2022-10-28T13:26:21.813Z,11.98
2022-10-28T13:28:51.560Z,13.98
2022-10-28T13:31:18.566Z,13.25
2022-10-28T13:33:55.963Z,13.95
2022-10-28T13:36:26.337Z,14.77
2022-10-28T13:38:56.293Z,15.07
2022-10-28T13:41:33.200Z,12.90
2022-10-28T13:44:14.680Z,14.43
2022-10-28T13:46:59.515Z,13.48
2022-10-28T13:49:30.490Z,17.83
2022-10-28T13:52:13.163Z,12.65
2022-10-28T13:54:39.483Z,12.52
2022-10-28T13:57:20.975Z,12.05
2022-10-28T13:59:52.014Z,15.43
2022-10-28T14:02:35.352Z,13.15
2022-10-28T14:05:13.640Z,15.50
2022-10-28T14:08:06.123Z,17.42
2022-10-28T14:10:36.418Z,16.65
2022-10-28T14:13:09.254Z,13.02
2022-10-28T14:15:38.107Z,15.65
2022-10-28T14:18:37.318Z,17.30
2022-10-28T14:21:01.433Z,14.65
2022-10-28T14:23:27.828Z,14.43
2022-10-28T14:25:54.688Z,13.30
2022-10-28T14:28:26.975Z,14.13
2022-10-28T14:31:11.612Z,11.35
2022-10-28T14:33:38.100Z,14.43
2022-10-28T14:36:21.081Z,12.45
2022-10-28T14:39:03.405Z,15.57
2022-10-28T14:41:57.033Z,13.40
2022-10-28T14:44:35.314Z,16.33
2022-10-28T14:47:26.126Z,13.57
2022-10-28T14:50:02.540Z,12.55
2022-10-28T14:52:31.387Z,14.88
2022-10-28T14:55:01.544Z,12.65
2022-10-28T14:57:33.614Z,17.67
2022-10-28T15:00:06.965Z,13.90
2022-10-28T15:02:35.552Z,15.95
2022-10-28T15:05:17.114Z,15.45
2022-10-28T15:07:43.692Z,16.67
2022-10-28T15:10:27.066Z,19.23
2022-10-28T15:12:55.613Z,19.20
2022-10-28T15:15:25.502Z,19.33
2022-10-28T15:17:52.598Z,16.50
2022-10-28T15:20:25.822Z,14.63
2022-10-28T15:22:54.058Z,17.48
2022-10-28T15:25:22.685Z,17.30
2022-10-28T15:27:53.402Z,18.95
2022-10-28T15:30:26.064Z,16.63
2022-10-28T15:33:19.584Z,21.63
2022-10-28T15:35:47.607Z,15.10
2022-10-28T15:38:29.331Z,14.35
2022-10-28T15:40:56.897Z,15.63
2022-10-28T15:43:30.668Z,30.67
2022-10-28T15:46:16.616Z,22.23
2022-10-28T15:48:43.007Z,19.13
2022-10-28T15:51:17.873Z,18.40
2022-10-28T15:53:48.518Z,17.90
2022-10-28T15:56:19.640Z,18.83
2022-10-28T15:58:49.716Z,16.08
2022-10-28T16:01:28.364Z,19.88
2022-10-28T16:03:54.938Z,19.10
2022-10-28T16:06:27.401Z,18.23
2022-10-28T16:09:32.234Z,18.73
2022-10-28T16:12:03.299Z,19.23
2022-10-28T16:14:36.152Z,16.38
2022-10-28T16:17:07.271Z,17.33
2022-10-28T16:19:39.861Z,18.77
2022-10-28T16:22:06.972Z,17.92
2022-10-28T16:24:33.302Z,19.48
2022-10-28T16:27:16.229Z,16.38
2022-10-28T16:29:42.641Z,21.40
2022-10-28T16:32:12.314Z,13.45
2022-10-28T16:34:39.043Z,23.92
2022-10-28T16:37:23.894Z,16.48
2022-10-28T16:39:50.542Z,15.70
2022-10-28T16:42:18.003Z,16.23
2022-10-28T16:44:44.601Z,14.70
2022-10-28T16:47:16.313Z,20.00
2022-10-28T16:49:43.028Z,16.63
2022-10-28T16:52:16.017Z,15.95
2022-10-28T16:54:42.716Z,17.65
2022-10-28T16:57:09.094Z,13.27
2022-10-28T16:59:35.508Z,18.13
2022-10-28T17:02:01.983Z,14.20
2022-10-28T17:04:29.703Z,17.25
2022-10-28T17:06:56.078Z,16.63
2022-10-28T17:09:22.551Z,17.23
2022-10-28T17:11:48.913Z,17.70
2022-10-28T17:14:15.254Z,14.55
2022-10-28T17:16:43.403Z,16.92
2022-10-28T17:19:10.147Z,17.88
2022-10-28T17:21:36.595Z,17.03
2022-10-28T17:24:04.322Z,16.27
2022-10-28T17:26:30.709Z,17.02
2022-10-28T17:28:57.104Z,15.85
2022-10-28T17:31:25.172Z,16.05
2022-10-28T17:33:55.365Z,15.93
2022-10-28T17:36:23.192Z,20.73
2022-10-28T17:38:49.758Z,14.73
2022-10-28T17:41:16.134Z,16.93
2022-10-28T17:43:42.558Z,15.00
2022-10-28T17:46:09.842Z,15.98
2022-10-28T17:48:36.353Z,17.37
2022-10-28T17:51:02.929Z,14.43
2022-10-28T17:53:29.503Z,14.60
2022-10-28T17:56:00.345Z,17.03
2022-10-28T17:58:26.827Z,17.40
2022-10-28T18:01:01.625Z,29.63
2022-10-28T18:03:29.982Z,22.65
2022-10-28T18:06:02.501Z,15.98
2022-10-28T18:08:33.052Z,20.98
2022-10-28T18:11:00.122Z,13.93
2022-10-28T18:13:27.956Z,17.88
2022-10-28T18:15:54.499Z,14.52
2022-10-28T18:18:20.855Z,14.57
2022-10-28T18:20:56.801Z,16.63
2022-10-28T18:23:23.719Z,23.23
2022-10-28T18:26:03.476Z,17.73
2022-10-28T18:28:31.209Z,16.73
2022-10-28T18:31:12.234Z,16.83
2022-10-28T18:33:39.161Z,15.63
2022-10-28T18:36:11.140Z,15.32
2022-10-28T18:38:37.808Z,14.52
2022-10-28T18:41:04.279Z,16.15
2022-10-28T18:43:30.744Z,14.83
2022-10-28T18:46:02.160Z,16.67
2022-10-28T18:48:29.579Z,16.80
2022-10-28T18:53:23.710Z,14.70
2022-10-28T18:55:50.144Z,17.30
2022-10-28T18:58:16.597Z,14.77
2022-10-28T19:00:43.315Z,15.80
2022-10-28T19:03:27.894Z,16.27
2022-10-28T19:05:54.939Z,16.70
2022-10-28T19:08:21.367Z,16.13
2022-10-28T19:10:48.645Z,19.33
2022-10-28T19:13:15.093Z,20.75
2022-10-28T19:15:46.960Z,16.02
2022-10-28T19:18:15.460Z,15.60
2022-10-28T19:20:44.978Z,19.98
2022-10-28T19:23:11.681Z,14.53
2022-10-28T19:25:38.201Z,22.33
2022-10-28T19:28:04.878Z,15.67
2022-10-28T19:30:31.400Z,14.93
2022-10-28T19:32:58.072Z,13.20
2022-10-28T19:35:24.560Z,14.60
2022-10-28T19:37:53.373Z,14.32
2022-10-28T19:40:20.101Z,19.23
2022-10-28T19:42:46.615Z,19.75
2022-10-28T19:45:13.030Z,17.92
2022-10-28T19:47:39.408Z,17.60
2022-10-28T19:50:06.316Z,15.18
2022-10-28T19:52:32.809Z,16.63
2022-10-28T19:54:59.183Z,13.60
2022-10-28T19:57:25.579Z,16.30
2022-10-28T19:59:51.937Z,17.67
2022-10-28T20:02:18.520Z,16.02
2022-10-28T20:04:45.042Z,13.18
2022-10-28T20:07:11.444Z,12.70
2022-10-28T20:09:37.815Z,14.00
2022-10-28T20:12:04.337Z,14.27
2022-10-28T20:14:31.764Z,14.73
2022-10-28T20:17:03.967Z,15.38
2022-10-28T20:19:32.933Z,15.38
2022-10-28T20:21:59.426Z,13.43
2022-10-28T20:24:26.385Z,17.07
2022-10-28T20:26:52.799Z,13.35
2022-10-28T20:29:19.169Z,14.85
2022-10-28T20:31:45.544Z,16.30
2022-10-28T20:34:11.964Z,13.18
2022-10-28T20:36:40.679Z,13.55
2022-10-28T20:39:11.866Z,13.45
2022-10-28T20:41:39.438Z,14.82
2022-10-28T20:44:06.459Z,14.45
2022-10-28T20:46:33.441Z,25.33
2022-10-28T20:49:00.826Z,17.73
2022-10-28T20:51:29.422Z,22.40
2022-10-28T20:53:55.924Z,30.30
2022-10-28T20:56:24.415Z,13.53
2022-10-28T20:58:51.719Z,27.10
2022-10-28T21:01:20.876Z,15.52
2022-10-28T21:03:48.227Z,13.00
2022-10-28T21:06:16.122Z,13.50
2022-10-28T21:08:43.217Z,14.77
2022-10-28T21:11:12.109Z,15.13
2022-10-28T21:13:39.336Z,12.38
2022-10-28T21:16:07.864Z,13.40
2022-10-28T21:18:35.839Z,12.57
2022-10-28T21:21:02.669Z,12.77
2022-10-28T21:23:29.694Z,14.02
2022-10-28T21:25:58.199Z,13.80
2022-10-28T21:28:24.688Z,66.60
2022-10-28T21:30:51.136Z,21.00
2022-10-28T21:33:20.429Z,25.02
2022-10-28T21:35:57.771Z,21.15
2022-10-28T21:38:25.109Z,35.47
2022-10-28T21:41:03.886Z,25.25
2022-10-28T21:43:32.508Z,19.48
2022-10-28T21:45:59.075Z,15.82
2022-10-28T21:48:26.353Z,14.70
2022-10-28T21:50:54.112Z,14.18
2022-10-28T21:53:21.108Z,13.63
2022-10-28T21:55:49.087Z,16.67
2022-10-28T21:58:17.460Z,13.60
2022-10-28T22:03:12.575Z,11.13
2022-10-28T22:05:39.232Z,14.30
2022-10-28T22:08:05.824Z,16.30
2022-10-28T22:10:32.401Z,15.20
2022-10-28T22:12:58.829Z,14.45
2022-10-28T22:15:25.238Z,12.82
2022-10-28T22:17:51.636Z,14.73
2022-10-28T22:20:18.059Z,15.00
2022-10-28T22:22:44.557Z,14.30
2022-10-28T22:25:11.187Z,13.47
2022-10-28T22:27:37.675Z,16.20
2022-10-28T22:30:04.617Z,17.37
2022-10-28T22:32:31.055Z,17.50
2022-10-28T22:34:57.431Z,12.45
2022-10-28T22:37:23.789Z,15.25
2022-10-28T22:39:50.172Z,13.15
2022-10-28T22:42:16.510Z,16.67
2022-10-28T22:44:42.880Z,15.98
2022-10-28T22:47:09.260Z,15.88
2022-10-28T22:49:35.712Z,13.38
2022-10-28T22:52:02.075Z,13.88
2022-10-28T22:54:28.448Z,16.17
2022-10-28T22:56:54.822Z,14.55
2022-10-28T22:59:21.174Z,15.70
2022-10-28T23:01:47.698Z,15.82
2022-10-28T23:04:14.264Z,17.43
2022-10-28T23:06:40.630Z,14.77
2022-10-28T23:09:07.014Z,14.05
2022-10-28T23:11:33.401Z,13.43
2022-10-28T23:13:59.806Z,14.88
2022-10-28T23:16:26.191Z,19.92
2022-10-28T23:18:53.211Z,12.77
2022-10-28T23:21:22.177Z,14.63
2022-10-28T23:23:56.585Z,16.52
2022-10-28T23:26:23.748Z,14.65
2022-10-28T23:28:52.641Z,16.42
2022-10-28T23:31:19.603Z,17.20
2022-10-28T23:33:46.046Z,12.75
2022-10-28T23:36:13.954Z,14.00
2022-10-28T23:38:40.366Z,16.35
2022-10-28T23:41:13.720Z,15.23
2022-10-28T23:43:40.175Z,15.40
2022-10-28T23:46:06.632Z,13.48
2022-10-28T23:48:33.036Z,13.65
2022-10-28T23:51:00.287Z,17.55
2022-10-28T23:55:58.817Z,12.55
2022-10-28T23:58:25.335Z,16.67
